Time;durP1;ratioP1;P1;durP2;ratioP2;P2;SDS_P1;SDS_P2;PMS_P1;PMS_P2;Temp;Humidity;BMP_temperature;BMP_pressure;BME280_temperature;BME280_humidity;BME280_pressure;Samples;Min_cycle;Max_cycle;Signal;HPM_P1;HPM_P2
2023/04/15 00:00:25;;;;;;;4.57;1.80;;;;;;;14.46;48.02;95638.97;5036396;28;20472;-32
2023/04/15 00:02:51;;;;;;;4.28;2.17;;;;;;;14.33;48.05;95631.06;5041951;28;20147;-31
2023/04/15 00:05:17;;;;;;;6.78;1.98;;;;;;;14.33;48.32;95625.59;5037707;28;20072;-32
2023/04/15 00:07:43;;;;;;;9.23;2.33;;;;;;;14.41;48.29;95620.53;5042321;28;20473;-31
2023/04/15 00:10:10;;;;;;;4.00;1.55;;;;;;;14.35;48.34;95616.91;5042457;28;20041;-31
2023/04/15 00:12:35;;;;;;;4.35;1.88;;;;;;;14.35;48.20;95606.00;5035765;28;20025;-30
2023/04/15 00:15:02;;;;;;;6.25;2.00;;;;;;;14.51;47.73;95607.53;5035333;28;20388;-30
2023/04/15 00:17:27;;;;;;;4.50;1.77;;;;;;;14.54;47.61;95601.16;5035806;28;20044;-32
2023/04/15 00:19:53;;;;;;;3.08;1.70;;;;;;;14.12;48.75;95604.13;5035629;28;20021;-30
2023/04/15 00:22:19;;;;;;;4.38;1.98;;;;;;;14.41;47.51;95598.72;5042134;28;20054;-30
2023/04/15 00:24:44;;;;;;;3.97;2.28;;;;;;;14.24;47.95;95601.13;5036229;28;22579;-30
2023/04/15 00:27:10;;;;;;;3.70;1.58;;;;;;;14.33;47.72;95603.03;5041944;28;20404;-30
2023/04/15 00:29:36;;;;;;;4.72;1.85;;;;;;;14.42;47.77;95605.69;5035518;28;20025;-31
2023/04/15 00:32:01;;;;;;;5.05;1.90;;;;;;;14.56;47.47;95604.16;5035200;28;20025;-30
2023/04/15 00:34:27;;;;;;;3.67;1.90;;;;;;;14.43;47.91;95604.44;5035055;28;20025;-31
2023/04/15 00:36:53;;;;;;;4.80;2.17;;;;;;;14.25;48.55;95607.31;5035078;28;20079;-32
2023/04/15 00:39:19;;;;;;;5.75;2.20;;;;;;;14.46;48.24;95608.22;5040817;28;20465;-30
2023/04/15 00:41:45;;;;;;;3.70;2.03;;;;;;;14.35;48.43;95601.31;5042272;28;20021;-30
2023/04/15 00:44:10;;;;;;;5.50;1.88;;;;;;;14.36;48.61;95602.06;5043775;28;20021;-31
2023/04/15 00:46:37;;;;;;;3.60;1.50;;;;;;;14.39;48.25;95601.13;5039544;28;20072;-33
2023/04/15 00:49:04;;;;;;;3.58;1.63;;;;;;;14.22;48.77;95600.06;5035439;28;20022;-31
2023/04/15 00:51:32;;;;;;;6.32;1.90;;;;;;;14.50;47.71;95595.88;5035088;28;20029;-32
2023/04/15 00:54:01;;;;;;;6.07;2.00;;;;;;;14.21;48.42;95596.63;5034863;28;20033;-30
2023/04/15 00:56:28;;;;;;;3.78;1.70;;;;;;;14.24;48.56;95589.47;5041940;28;20095;-32
2023/04/15 00:58:53;;;;;;;3.88;1.73;;;;;;;14.41;47.64;95592.50;5034557;28;20032;-30
2023/04/15 01:01:24;;;;;;;4.00;1.73;;;;;;;14.40;47.63;95583.56;5035026;28;20381;-30
2023/04/15 01:03:50;;;;;;;6.47;1.75;;;;;;;14.33;47.79;95578.47;5034066;28;20049;-31
2023/04/15 01:06:17;;;;;;;8.52;2.20;;;;;;;14.19;48.57;95595.59;5035037;28;20436;-31
2023/04/15 01:08:43;;;;;;;3.33;1.50;;;;;;;14.10;48.64;95587.47;5041417;28;20107;-31
2023/04/15 01:11:10;;;;;;;4.47;1.70;;;;;;;14.13;48.36;95592.00;5041428;28;20048;-32
2023/04/15 01:13:36;;;;;;;8.50;2.00;;;;;;;14.17;48.02;95578.94;5034959;28;20048;-32
2023/04/15 01:16:01;;;;;;;5.03;1.73;;;;;;;14.14;48.23;95593.50;5034419;28;20025;-30
2023/04/15 01:18:28;;;;;;;4.18;1.75;;;;;;;14.21;48.37;95596.63;5034860;28;20104;-31
2023/04/15 01:20:53;;;;;;;4.28;1.48;;;;;;;14.14;48.34;95598.94;5038099;28;20025;-31
2023/04/15 01:23:21;;;;;;;5.43;1.65;;;;;;;14.31;48.66;95594.56;5037973;28;20416;-30
2023/04/15 01:25:48;;;;;;;5.18;1.98;;;;;;;14.54;47.96;95607.34;5041497;28;20025;-30
2023/04/15 01:28:14;;;;;;;7.15;2.05;;;;;;;14.26;49.18;95592.47;5046613;28;20018;-30
2023/04/15 01:30:39;;;;;;;7.75;1.80;;;;;;;14.25;49.45;95585.50;5034431;28;20084;-32
2023/04/15 01:33:05;;;;;;;6.85;2.03;;;;;;;14.19;50.15;95587.41;5034169;28;20021;-31
2023/04/15 01:35:31;;;;;;;5.47;1.60;;;;;;;14.32;49.90;95591.34;5034212;28;20029;-30
2023/04/15 01:38:04;;;;;;;10.43;2.20;;;;;;;14.38;50.19;95594.16;5034185;28;20087;-31
2023/04/15 01:40:29;;;;;;;10.57;2.50;;;;;;;14.38;50.34;95588.72;5039514;28;20033;-31
2023/04/15 01:42:55;;;;;;;6.78;1.88;;;;;;;14.19;50.85;95576.50;5035057;28;20021;-30
2023/04/15 01:45:21;;;;;;;6.28;2.53;;;;;;;14.40;50.60;95586.28;5047374;28;20040;-32
2023/04/15 01:47:46;;;;;;;8.75;2.20;;;;;;;14.46;49.92;95592.59;5033318;28;20025;-30
2023/04/15 01:50:12;;;;;;;11.68;2.30;;;;;;;14.34;50.66;95590.88;5034239;28;20544;-31
2023/04/15 01:52:37;;;;;;;8.40;2.42;;;;;;;14.33;50.45;95603.78;5033849;28;20025;-31
2023/04/15 01:55:03;;;;;;;8.93;2.53;;;;;;;14.43;50.37;95601.72;5032894;28;20026;-31
2023/04/15 01:57:28;;;;;;;4.95;1.90;;;;;;;14.36;50.62;95602.06;5041209;28;20024;-30
2023/04/15 01:59:54;;;;;;;6.32;1.70;;;;;;;14.42;50.20;95600.22;5040283;28;20021;-30
2023/04/15 02:02:20;;;;;;;11.60;2.45;;;;;;;14.20;50.95;95606.03;5035752;28;20025;-30
2023/04/15 02:04:45;;;;;;;8.77;2.10;;;;;;;14.44;50.37;95597.78;5039597;28;20041;-31
2023/04/15 02:07:11;;;;;;;5.03;2.28;;;;;;;14.38;50.40;95594.91;5033611;28;20021;-31
2023/04/15 02:09:37;;;;;;;9.82;2.25;;;;;;;14.37;50.34;95600.84;5032629;28;20033;-31
2023/04/15 02:12:03;;;;;;;5.38;1.80;;;;;;;14.22;50.68;95591.91;5033659;28;20079;-32
2023/04/15 02:14:28;;;;;;;5.25;1.65;;;;;;;14.07;51.06;95593.88;5040764;28;20021;-30
2023/04/15 02:16:53;;;;;;;8.13;1.95;;;;;;;14.44;49.89;95594.28;5040783;28;20017;-34
2023/04/15 02:19:19;;;;;;;8.90;1.83;;;;;;;14.40;49.81;95583.56;5033547;28;20422;-32
2023/04/15 02:21:44;;;;;;;9.48;1.90;;;;;;;14.41;49.92;95587.03;5041088;28;20474;-31
2023/04/15 02:24:11;;;;;;;6.95;3.22;;;;;;;14.28;50.48;95579.13;5033441;28;20053;-31
2023/04/15 02:26:36;;;;;;;7.07;1.70;;;;;;;14.14;51.13;95574.41;5033475;28;20036;-30
2023/04/15 02:29:02;;;;;;;5.93;1.52;;;;;;;14.35;50.43;95579.47;5036765;28;20013;-30
2023/04/15 02:31:27;;;;;;;6.22;1.50;;;;;;;14.17;51.19;95574.22;5037588;28;20018;-31
2023/04/15 02:33:52;;;;;;;8.68;1.95;;;;;;;14.29;51.13;95570.47;5040708;28;21987;-31
2023/04/15 02:36:19;;;;;;;8.60;1.75;;;;;;;14.17;51.66;95566.06;5033801;28;20457;-31
2023/04/15 02:38:45;;;;;;;10.90;1.80;;;;;;;14.36;51.43;95569.31;5033695;28;20074;-32
2023/04/15 02:41:10;;;;;;;5.63;1.40;;;;;;;14.42;51.12;95567.47;5041048;28;20021;-30
2023/04/15 02:43:36;;;;;;;9.45;2.22;;;;;;;14.43;51.43;95560.81;5040691;28;20033;-30
2023/04/15 02:46:02;;;;;;;8.02;1.90;;;;;;;14.65;50.75;95555.69;5047551;28;20021;-31
2023/04/15 02:48:28;;;;;;;11.85;2.20;;;;;;;14.63;51.03;95555.41;5033076;28;20033;-31
2023/04/15 02:51:09;;;;;;;8.00;2.00;;;;;;;14.63;51.00;95555.41;5031646;28;20087;-30
2023/04/15 02:53:35;;;;;;;9.70;1.70;;;;;;;14.55;51.41;95553.53;5027778;28;20022;-32
2023/04/15 02:56:00;;;;;;;11.77;2.47;;;;;;;14.68;51.18;95545.81;5033247;28;20412;-30
2023/04/15 02:58:25;;;;;;;10.60;2.15;;;;;;;14.70;51.27;95541.38;5037336;28;20369;-30
2023/04/15 03:00:51;;;;;;;7.60;1.88;;;;;;;14.57;51.74;95538.22;5040429;28;20079;-30
2023/04/15 03:03:16;;;;;;;11.48;1.85;;;;;;;14.38;52.27;95534.16;5051338;28;20079;-30
2023/04/15 03:05:43;;;;;;;10.30;2.10;;;;;;;14.57;51.93;95530.03;5037035;28;20025;-31
2023/04/15 03:08:08;;;;;;;18.35;3.00;;;;;;;14.67;51.66;95525.94;5036810;28;20075;-30
2023/04/15 03:10:34;;;;;;;11.77;1.95;;;;;;;14.58;52.09;95520.63;5037431;28;20012;-30
2023/04/15 03:13:00;;;;;;;7.15;1.75;;;;;;;14.32;52.62;95514.22;5036941;28;20023;-31
2023/04/15 03:15:25;;;;;;;11.63;2.10;;;;;;;14.32;52.54;95520.44;5042423;28;20058;-32
2023/04/15 03:17:51;;;;;;;9.10;2.10;;;;;;;14.62;51.78;95514.94;5040170;28;20009;-31
2023/04/15 03:20:17;;;;;;;8.55;1.75;;;;;;;14.56;52.10;95503.97;5041037;28;20103;-30
2023/04/15 03:22:42;;;;;;;7.47;2.05;;;;;;;14.59;51.80;95500.25;5044173;28;20029;-32
2023/04/15 03:25:08;;;;;;;13.88;2.78;;;;;;;14.58;52.19;95500.75;5036633;28;20017;-32
2023/04/15 03:27:33;;;;;;;10.45;2.72;;;;;;;14.53;52.18;95506.88;5043537;28;20056;-31
2023/04/15 03:29:59;;;;;;;9.40;2.72;;;;;;;14.48;52.52;95500.09;5036670;28;20029;-31
2023/04/15 03:32:24;;;;;;;7.15;2.10;;;;;;;14.32;53.15;95498.63;5043840;28;20036;-31
2023/04/15 03:34:50;;;;;;;10.82;2.85;;;;;;;14.27;53.71;95501.25;5042239;28;20515;-31
2023/04/15 03:37:15;;;;;;;10.38;2.50;;;;;;;14.33;53.35;95494.69;5035954;28;20016;-31
2023/04/15 03:39:41;;;;;;;7.50;2.03;;;;;;;14.37;53.68;95487.03;5035904;28;20065;-30
2023/04/15 03:42:06;;;;;;;10.27;3.22;;;;;;;14.00;54.78;95483.97;5036686;28;20028;-31
2023/04/15 03:44:32;;;;;;;14.73;2.90;;;;;;;14.11;54.67;95485.38;5041093;28;20025;-31
2023/04/15 03:46:57;;;;;;;13.25;2.95;;;;;;;14.14;54.50;95487.16;5037954;28;20067;-30
2023/04/15 03:49:23;;;;;;;8.82;2.72;;;;;;;14.18;54.11;95488.47;5043191;28;20091;-30
2023/04/15 03:51:48;;;;;;;10.00;2.42;;;;;;;14.25;54.21;95481.88;5043228;28;20025;-31
2023/04/15 03:54:14;;;;;;;12.63;2.72;;;;;;;14.21;54.37;95492.25;5036350;28;20484;-30
2023/04/15 03:56:40;;;;;;;13.43;2.60;;;;;;;14.22;54.67;95493.72;5035890;28;20465;-31
2023/04/15 03:59:06;;;;;;;12.80;2.30;;;;;;;14.30;54.10;95489.41;5035986;28;20076;-30
2023/04/15 04:01:31;;;;;;;8.60;2.00;;;;;;;14.10;54.87;95489.31;5036002;28;20033;-31
2023/04/15 04:03:57;;;;;;;11.65;2.33;;;;;;;14.22;54.53;95491.00;5048994;28;20488;-31
2023/04/15 04:06:22;;;;;;;11.40;2.38;;;;;;;14.33;54.29;95483.75;5037624;28;20033;-31
2023/04/15 04:08:47;;;;;;;14.60;2.40;;;;;;;14.23;54.36;95476.91;5041839;28;20025;-30
2023/04/15 04:11:13;;;;;;;13.20;3.22;;;;;;;14.33;54.34;95472.84;5034999;28;20022;-31
2023/04/15 04:13:39;;;;;;;8.50;1.83;;;;;;;14.18;54.79;95477.56;5036542;28;20024;-31
2023/04/15 04:16:05;;;;;;;13.23;2.53;;;;;;;14.16;54.77;95473.81;5035764;28;20045;-30
2023/04/15 04:18:31;;;;;;;10.65;2.17;;;;;;;13.91;55.72;95478.63;5034101;28;20114;-30
2023/04/15 04:20:57;;;;;;;11.40;2.58;;;;;;;14.12;55.05;95481.44;5046779;28;20017;-31
2023/04/15 04:23:22;;;;;;;8.88;2.55;;;;;;;14.27;54.81;95473.97;5045639;28;20036;-31
2023/04/15 04:25:48;;;;;;;12.60;2.30;;;;;;;14.09;54.95;95474.22;5037016;28;20071;-31
2023/04/15 04:28:13;;;;;;;11.98;2.28;;;;;;;13.91;55.57;95481.34;5040421;28;20021;-31
2023/04/15 04:30:39;;;;;;;9.60;2.38;;;;;;;14.14;54.92;95477.00;5035487;28;20142;-31
2023/04/15 04:33:05;;;;;;;9.73;2.90;;;;;;;14.30;54.58;95470.31;5038493;28;20352;-30
2023/04/15 04:35:33;;;;;;;7.57;2.20;;;;;;;14.35;54.31;95472.34;5038983;28;20036;-31
2023/04/15 04:37:59;;;;;;;10.10;1.95;;;;;;;14.25;54.44;95466.25;5042710;28;20021;-30
2023/04/15 04:40:25;;;;;;;7.57;1.90;;;;;;;14.07;55.16;95471.19;5035183;28;20025;-30
2023/04/15 04:42:50;;;;;;;13.00;2.58;;;;;;;14.24;54.51;95467.50;5035052;28;20017;-31
2023/04/15 04:45:16;;;;;;;11.85;2.28;;;;;;;14.34;54.20;95463.41;5034881;28;20026;-32
2023/04/15 04:47:41;;;;;;;11.30;2.08;;;;;;;14.37;54.19;95467.19;5034900;28;20052;-30
2023/04/15 04:50:07;;;;;;;9.82;1.60;;;;;;;14.20;55.12;95463.47;5042383;28;20028;-31
2023/04/15 04:52:33;;;;;;;13.23;2.17;;;;;;;14.30;54.47;95479.25;5039516;28;20078;-30
2023/04/15 04:54:58;;;;;;;11.77;1.55;;;;;;;14.23;54.76;95468.72;5037305;28;20029;-30
2023/04/15 04:57:24;;;;;;;8.48;1.40;;;;;;;14.06;55.39;95481.34;5035359;28;20419;-31
2023/04/15 04:59:50;;;;;;;8.35;1.60;;;;;;;14.23;55.57;95487.03;5034901;28;20021;-30
2023/04/15 05:02:15;;;;;;;8.65;1.80;;;;;;;14.11;55.57;95482.66;5035616;28;20361;-31
2023/04/15 05:04:40;;;;;;;8.70;1.70;;;;;;;14.21;55.11;95487.53;5040801;28;20466;-30
2023/04/15 05:07:06;;;;;;;13.70;2.67;;;;;;;14.13;55.69;95480.19;5041458;28;20034;-32
2023/04/15 05:09:34;;;;;;;14.98;2.08;;;;;;;14.19;55.52;95484.53;5034760;28;20021;-31
2023/04/15 05:12:00;;;;;;;12.50;3.20;;;;;;;14.21;55.48;95482.09;5034502;28;20024;-30
2023/04/15 05:14:26;;;;;;;13.05;2.33;;;;;;;14.08;55.88;95470.72;5034484;28;20029;-30
2023/04/15 05:16:51;;;;;;;9.32;1.50;;;;;;;14.09;55.89;95476.94;5032775;28;20017;-31
2023/04/15 05:19:16;;;;;;;10.35;1.65;;;;;;;13.99;56.39;95470.81;5041215;28;20028;-31
2023/04/15 05:21:42;;;;;;;6.53;1.50;;;;;;;14.16;55.97;95468.34;5043379;28;20113;-30
2023/04/15 05:24:07;;;;;;;6.53;1.95;;;;;;;14.09;56.30;95474.22;5039415;28;20013;-31
2023/04/15 05:26:33;;;;;;;8.27;1.77;;;;;;;14.17;55.73;95465.16;5041558;28;20031;-31
2023/04/15 05:28:58;;;;;;;8.10;1.52;;;;;;;14.11;56.39;95469.75;5034068;28;20225;-31
2023/04/15 05:31:24;;;;;;;9.15;1.63;;;;;;;14.29;55.51;95471.53;5034136;28;20060;-31
2023/04/15 05:33:50;;;;;;;9.40;1.67;;;;;;;14.36;55.54;95469.16;5034224;28;20389;-31
2023/04/15 05:36:15;;;;;;;7.75;1.45;;;;;;;14.28;55.88;95470.78;5040983;28;20458;-32
2023/04/15 05:38:41;;;;;;;7.78;1.55;;;;;;;14.16;56.24;95466.38;5041164;28;20484;-31
2023/04/15 05:41:07;;;;;;;9.18;1.65;;;;;;;14.22;56.06;95478.13;5032874;28;20107;-31
2023/04/15 05:43:32;;;;;;;8.82;1.88;;;;;;;14.39;55.57;95470.19;5033901;28;20378;-30
2023/04/15 05:45:58;;;;;;;9.77;1.73;;;;;;;14.27;55.88;95474.72;5041375;28;20079;-30
2023/04/15 05:48:23;;;;;;;4.32;1.48;;;;;;;14.29;55.76;95466.84;5033868;28;20022;-30
2023/04/15 05:50:49;;;;;;;6.72;1.35;;;;;;;14.15;56.49;95466.84;5034020;28;20105;-31
2023/04/15 05:53:14;;;;;;;9.38;2.05;;;;;;;14.17;56.03;95459.72;5041236;28;20029;-30
2023/04/15 05:55:39;;;;;;;5.68;1.55;;;;;;;14.23;56.05;95460.53;5039233;28;20025;-31
2023/04/15 05:58:05;;;;;;;6.60;1.50;;;;;;;14.33;55.80;95467.41;5033983;28;20045;-30
2023/04/15 06:00:31;;;;;;;9.48;1.92;;;;;;;14.37;56.10;95467.94;5026352;28;20025;-31
2023/04/15 06:02:57;;;;;;;13.32;1.83;;;;;;;14.21;56.71;95463.00;5033684;28;20013;-31
2023/04/15 06:05:23;;;;;;;7.45;1.67;;;;;;;14.33;55.97;95463.91;5033580;28;20042;-31
2023/04/15 06:07:49;;;;;;;6.13;1.92;;;;;;;14.41;55.94;95461.56;5038259;28;20373;-31
2023/04/15 06:10:14;;;;;;;6.43;1.70;;;;;;;14.39;55.89;95464.72;5036115;28;20071;-30
2023/04/15 06:12:40;;;;;;;6.97;1.38;;;;;;;14.22;56.40;95463.72;5033270;28;20096;-31
2023/04/15 06:15:08;;;;;;;7.80;1.70;;;;;;;14.12;56.83;95467.78;5033997;28;20445;-30
2023/04/15 06:17:34;;;;;;;11.13;2.60;;;;;;;14.29;56.85;95461.38;5033738;28;20030;-30
2023/04/15 06:19:59;;;;;;;8.80;2.13;;;;;;;14.09;57.92;95455.13;5033662;28;20372;-30
2023/04/15 06:22:25;;;;;;;6.20;1.70;;;;;;;14.20;57.39;95468.94;5040325;28;20045;-31
2023/04/15 06:24:50;;;;;;;5.80;1.77;;;;;;;14.09;57.89;95463.31;5041094;28;20024;-30
2023/04/15 06:27:16;;;;;;;6.03;1.77;;;;;;;14.15;57.73;95455.94;5045768;28;20021;-30
2023/04/15 06:29:42;;;;;;;5.70;1.65;;;;;;;14.15;57.73;95464.13;5034884;28;20055;-31
2023/04/15 06:32:07;;;;;;;3.95;1.77;;;;;;;14.26;57.63;95456.88;5033393;28;20376;-30
2023/04/15 06:34:33;;;;;;;4.75;1.50;;;;;;;14.16;57.97;95454.72;5036330;28;20051;-30
2023/04/15 06:36:59;;;;;;;5.40;1.27;;;;;;;14.07;58.29;95452.13;5037557;28;20029;-30
2023/04/15 06:39:25;;;;;;;3.92;1.48;;;;;;;14.11;57.97;95450.69;5037615;28;20025;-31
2023/04/15 06:41:51;;;;;;;4.35;1.30;;;;;;;14.21;58.03;95451.34;5044958;28;20025;-31
2023/04/15 06:44:17;;;;;;;6.47;1.92;;;;;;;14.27;57.87;95457.63;5044373;28;20339;-31
2023/04/15 06:46:43;;;;;;;2.95;1.20;;;;;;;14.37;57.85;95448.09;5037088;28;20075;-33
2023/04/15 06:49:08;;;;;;;3.80;1.40;;;;;;;14.27;57.84;95452.91;5037432;28;20037;-30
2023/04/15 06:51:36;;;;;;;3.33;1.25;;;;;;;14.21;58.18;95448.63;5037436;28;20021;-30
2023/04/15 06:54:04;;;;;;;4.00;1.55;;;;;;;14.23;58.07;95452.34;5044216;28;20021;-30
2023/04/15 06:56:31;;;;;;;2.50;1.20;;;;;;;14.15;58.69;95455.94;5040532;28;20029;-31
2023/04/15 06:58:56;;;;;;;1.83;0.95;;;;;;;14.34;57.90;95457.25;5040573;28;20014;-31
2023/04/15 07:01:22;;;;;;;3.38;1.30;;;;;;;14.23;58.33;95454.31;5044448;28;20035;-30
2023/04/15 07:03:47;;;;;;;5.03;1.73;;;;;;;14.31;58.30;95460.91;5036830;28;20049;-31
2023/04/15 07:06:13;;;;;;;4.97;1.58;;;;;;;14.33;58.04;95455.75;5037188;28;20075;-31
2023/04/15 07:08:38;;;;;;;2.85;1.33;;;;;;;14.17;58.53;95458.97;5029725;28;20021;-30
2023/04/15 07:11:04;;;;;;;4.57;1.15;;;;;;;14.36;57.81;95462.94;5036533;28;20021;-30
2023/04/15 07:13:31;;;;;;;4.07;0.90;;;;;;;14.23;58.69;95452.34;5042539;28;20503;-31
2023/04/15 07:15:56;;;;;;;2.50;1.10;;;;;;;14.31;58.46;95463.63;5040828;28;20099;-30
2023/04/15 07:18:22;;;;;;;2.35;0.98;;;;;;;14.45;58.06;95465.59;5039088;28;20101;-31
2023/04/15 07:20:47;;;;;;;2.42;0.90;;;;;;;14.32;58.54;95457.72;5039898;28;20514;-31
2023/04/15 07:23:13;;;;;;;2.47;0.93;;;;;;;14.49;57.69;95449.78;5041299;28;20376;-31
2023/04/15 07:25:38;;;;;;;2.85;0.60;;;;;;;14.21;58.94;95454.81;5037274;28;20029;-30
2023/04/15 07:28:04;;;;;;;2.10;0.93;;;;;;;14.35;58.83;95451.28;5036593;28;20532;-31
2023/04/15 07:30:29;;;;;;;2.78;0.80;;;;;;;14.53;58.40;95453.06;5043477;28;20073;-30
2023/04/15 07:32:55;;;;;;;6.10;1.00;;;;;;;14.46;58.54;95456.19;5043450;28;20017;-30
2023/04/15 07:35:20;;;;;;;4.05;0.88;;;;;;;14.43;58.75;95451.69;5036231;28;20018;-30
2023/04/15 07:37:46;;;;;;;2.05;0.63;;;;;;;14.47;58.29;95449.50;5036561;28;20029;-31
2023/04/15 07:40:13;;;;;;;3.88;1.23;;;;;;;14.51;58.42;95454.75;5036248;28;20049;-30
2023/04/15 07:42:39;;;;;;;5.05;0.70;;;;;;;14.48;58.81;95455.69;5042667;28;20028;-31
2023/04/15 07:45:05;;;;;;;2.30;0.63;;;;;;;14.53;58.50;95455.03;5044517;28;20039;-30
2023/04/15 07:47:31;;;;;;;2.97;1.10;;;;;;;14.42;58.93;95455.63;5041484;28;20021;-31
2023/04/15 07:49:56;;;;;;;4.10;0.98;;;;;;;14.48;58.65;95461.91;5043595;28;20038;-31
2023/04/15 07:52:21;;;;;;;1.98;0.70;;;;;;;14.47;58.81;95460.41;5028745;28;20026;-31
2023/04/15 07:54:47;;;;;;;1.65;0.80;;;;;;;14.45;58.81;95462.88;5035942;28;20028;-30
2023/04/15 07:57:12;;;;;;;2.53;0.70;;;;;;;14.45;59.06;95457.44;5036348;28;20362;-31
2023/04/15 07:59:38;;;;;;;1.70;1.13;;;;;;;14.40;58.92;95465.50;5043510;28;20021;-30
2023/04/15 08:02:03;;;;;;;1.88;0.70;;;;;;;14.32;59.89;95476.06;5042717;28;20365;-31
2023/04/15 08:04:29;;;;;;;2.60;0.70;;;;;;;14.66;58.20;95467.13;5043690;28;20041;-30
2023/04/15 08:06:55;;;;;;;1.65;0.70;;;;;;;14.41;58.68;95477.94;5034354;28;20473;-30
2023/04/15 08:09:20;;;;;;;2.72;0.70;;;;;;;14.66;57.89;95477.28;5042952;28;20029;-30
2023/04/15 08:11:48;;;;;;;1.65;0.60;;;;;;;14.46;58.83;95474.53;5036061;28;20469;-30
2023/04/15 08:14:14;;;;;;;3.42;0.90;;;;;;;14.41;58.88;95481.41;5037299;28;20018;-30
2023/04/15 08:16:40;;;;;;;1.67;0.60;;;;;;;14.76;58.75;95475.94;5043178;28;20035;-31
2023/04/15 08:19:05;;;;;;;2.60;0.85;;;;;;;14.70;59.00;95475.13;5042779;28;20010;-30
2023/04/15 08:21:31;;;;;;;5.63;1.45;;;;;;;14.49;58.93;95479.78;5035831;28;20032;-30
2023/04/15 08:23:56;;;;;;;5.88;1.67;;;;;;;14.69;58.85;95485.28;5035476;28;20033;-32
2023/04/15 08:26:22;;;;;;;6.75;1.70;;;;;;;14.49;59.21;95484.50;5040546;28;20036;-30
2023/04/15 08:28:48;;;;;;;8.10;3.10;;;;;;;14.55;59.22;95480.63;5035871;28;20519;-31
2023/04/15 08:31:15;;;;;;;5.22;2.25;;;;;;;14.72;58.54;95489.78;5040144;28;20027;-30
2023/04/15 08:33:41;;;;;;;14.65;4.05;;;;;;;14.77;58.45;95487.59;5037336;28;20022;-30
2023/04/15 08:36:07;;;;;;;6.20;2.53;;;;;;;14.42;59.70;95491.09;5027975;28;20032;-30
2023/04/15 08:38:33;;;;;;;5.47;2.38;;;;;;;14.51;59.44;95487.50;5035283;28;20022;-31
2023/04/15 08:41:03;;;;;;;3.90;1.70;;;;;;;14.37;60.11;95486.28;5034065;28;20111;-32
2023/04/15 08:43:34;;;;;;;2.92;1.65;;;;;;;14.47;59.57;95493.16;5033649;28;20384;-31
2023/04/15 08:46:01;;;;;;;3.72;1.98;;;;;;;14.56;59.31;95495.03;5035115;28;20116;-30
2023/04/15 08:48:32;;;;;;;5.70;2.30;;;;;;;14.58;59.55;95492.56;5042191;28;20029;-30
2023/04/15 08:50:58;;;;;;;4.00;2.60;;;;;;;14.49;59.68;95495.41;5034910;28;20031;-30
2023/04/15 08:53:25;;;;;;;3.72;2.13;;;;;;;14.76;58.95;95494.28;5027771;28;20045;-30
2023/04/15 08:55:51;;;;;;;7.20;1.90;;;;;;;14.68;59.44;95496.69;5034622;28;20385;-31
2023/04/15 08:58:18;;;;;;;9.55;2.10;;;;;;;14.65;58.98;95494.91;5035141;28;20021;-31
2023/04/15 09:00:44;;;;;;;3.78;1.50;;;;;;;14.66;59.43;95499.88;5039660;28;20021;-31
2023/04/15 09:03:10;;;;;;;5.38;1.30;;;;;;;14.61;59.48;95502.53;5040959;28;20537;-31
2023/04/15 09:05:36;;;;;;;6.50;2.10;;;;;;;14.41;59.61;95500.50;5033631;28;20129;-31
2023/04/15 09:08:02;;;;;;;4.55;1.90;;;;;;;14.44;59.58;95505.03;5040846;28;20368;-30
2023/04/15 09:10:28;;;;;;;2.55;1.40;;;;;;;14.44;59.41;95502.28;5035625;28;20021;-31
2023/04/15 09:12:55;;;;;;;4.40;1.40;;;;;;;14.66;59.29;95505.34;5034551;28;20429;-31
2023/04/15 09:15:21;;;;;;;3.85;1.30;;;;;;;14.63;59.00;95506.28;5034338;28;20021;-30
2023/04/15 09:17:47;;;;;;;3.72;0.95;;;;;;;14.74;59.16;95500.97;5042196;28;20029;-31
2023/04/15 09:20:17;;;;;;;6.78;2.42;;;;;;;14.60;58.96;95496.31;5040667;28;20476;-30
2023/04/15 09:22:45;;;;;;;6.18;1.55;;;;;;;14.63;59.51;95494.63;5034816;28;20036;-31
2023/04/15 09:25:14;;;;;;;10.30;1.52;;;;;;;14.58;59.66;95498.03;5034527;28;20424;-31
2023/04/15 09:27:58;;;;;;;12.63;2.25;;;;;;;14.76;59.11;95492.31;5041321;28;20067;-33
2023/04/15 09:30:25;;;;;;;10.38;2.50;;;;;;;14.67;59.49;95492.44;5040674;28;20040;-30
2023/04/15 09:32:56;;;;;;;9.63;2.92;;;;;;;14.78;59.26;95492.59;5036192;28;20032;-30
2023/04/15 09:35:23;;;;;;;14.68;2.20;;;;;;;14.58;59.39;95487.88;5039225;28;20028;-30
2023/04/15 09:37:49;;;;;;;6.63;2.40;;;;;;;14.80;59.37;95486.66;5034355;28;20104;-31
2023/04/15 09:40:50;;;;;;;13.30;3.92;;;;;;;14.62;59.99;95477.50;5034140;28;20036;-30
2023/04/15 09:43:16;;;;;;;7.97;1.50;;;;;;;14.71;60.02;95479.38;5027150;28;20030;-31
2023/04/15 09:45:54;;;;;;;8.18;1.95;;;;;;;14.59;59.93;95472.22;5041094;28;20036;-32
2023/04/15 09:48:20;;;;;;;5.53;1.95;;;;;;;14.63;59.86;95462.63;5033857;28;20053;-31
2023/04/15 09:50:52;;;;;;;7.00;1.73;;;;;;;14.65;60.04;95462.16;5041213;28;20030;-30
2023/04/15 09:53:21;;;;;;;3.72;1.58;;;;;;;14.59;60.58;95445.69;5034519;28;20381;-30
2023/04/15 09:55:51;;;;;;;2.55;1.30;;;;;;;14.56;60.08;95446.66;5033987;28;20021;-31
2023/04/15 09:58:26;;;;;;;4.82;2.00;;;;;;;14.44;60.43;95442.28;5033892;28;20500;-31
2023/04/15 10:00:53;;;;;;;3.17;2.03;;;;;;;14.77;59.40;95435.75;5033940;28;20547;-31
2023/04/15 10:03:45;;;;;;;3.88;1.90;;;;;;;14.65;60.00;95443.78;5033497;28;20021;-30
2023/04/15 10:06:11;;;;;;;3.70;1.83;;;;;;;14.61;60.75;95426.88;5040719;28;20033;-33
2023/04/15 10:08:37;;;;;;;2.30;1.60;;;;;;;14.60;60.54;95425.38;5040426;28;20037;-31
2023/04/15 10:11:04;;;;;;;2.65;1.52;;;;;;;14.77;60.28;95427.56;5033586;28;20369;-31
2023/04/15 10:13:36;;;;;;;2.42;1.30;;;;;;;14.61;61.21;95432.31;5034235;28;20496;-30
2023/04/15 10:16:06;;;;;;;2.90;1.63;;;;;;;14.65;61.31;95426.69;5033839;28;20461;-31
2023/04/15 10:18:34;;;;;;;3.90;1.48;;;;;;;14.77;60.40;95428.31;5034648;28;20029;-31
2023/04/15 10:21:00;;;;;;;6.68;2.80;;;;;;;14.72;60.83;95429.72;5044931;28;20385;-30
2023/04/15 10:23:27;;;;;;;4.85;2.20;;;;;;;14.93;59.88;95427.03;5040334;28;20029;-31
2023/04/15 10:25:55;;;;;;;4.63;2.47;;;;;;;14.94;61.15;95417.59;5042593;28;20139;-31
2023/04/15 10:28:21;;;;;;;4.47;2.40;;;;;;;14.88;60.36;95416.78;5037552;28;20031;-31
2023/04/15 10:30:48;;;;;;;3.00;1.80;;;;;;;14.99;59.37;95416.91;5033924;28;20025;-31
2023/04/15 10:33:18;;;;;;;3.45;2.08;;;;;;;14.90;60.77;95415.06;5033414;28;20453;-31
2023/04/15 10:35:46;;;;;;;6.05;2.50;;;;;;;15.12;60.82;95414.56;5040935;28;20487;-30
2023/04/15 10:38:31;;;;;;;3.72;1.95;;;;;;;14.42;62.54;95417.44;5037117;28;20055;-31
2023/04/15 10:41:17;;;;;;;4.07;1.90;;;;;;;15.08;60.27;95414.78;5034249;28;20017;-32
2023/04/15 10:43:54;;;;;;;4.60;1.90;;;;;;;14.90;60.76;95408.88;5033339;28;20096;-32
2023/04/15 10:46:37;;;;;;;4.60;1.85;;;;;;;14.87;61.32;95409.81;5033326;28;20444;-31
2023/04/15 10:49:10;;;;;;;4.03;1.50;;;;;;;14.84;60.83;95408.78;5033505;28;20592;-31
2023/04/15 10:51:42;;;;;;;;;;;;;;;15.09;59.82;95415.53;5038645;28;20029;-30
2023/04/15 10:54:13;;;;;;;3.47;1.23;;;;;;;14.88;60.79;95409.34;5034683;28;20254;-30
2023/04/15 10:56:44;;;;;;;1.80;1.13;;;;;;;14.94;60.20;95415.63;5030327;28;20458;-31
2023/04/15 10:59:10;;;;;;;1.90;1.30;;;;;;;15.05;60.77;95410.28;5033330;28;20477;-32
2023/04/15 11:01:59;;;;;;;2.45;1.60;;;;;;;14.95;61.01;95405.47;5033333;28;20044;-30
2023/04/15 11:04:56;;;;;;;1.50;1.23;;;;;;;14.97;60.98;95400.25;5042042;28;20081;-30
2023/04/15 11:07:43;;;;;;;1.85;1.20;;;;;;;14.89;61.39;95399.16;5034775;28;20030;-32
2023/04/15 11:10:24;;;;;;;2.97;1.05;;;;;;;15.15;60.11;95401.94;5033155;28;20025;-30
2023/04/15 11:12:56;;;;;;;1.55;1.23;;;;;;;14.98;60.79;95401.75;5026977;28;20021;-31
2023/04/15 11:15:30;;;;;;;2.00;1.30;;;;;;;15.06;60.38;95394.66;5033531;28;20033;-30
2023/04/15 11:18:07;;;;;;;1.60;1.50;;;;;;;14.95;60.41;95391.81;5027489;28;20061;-31
2023/04/15 11:20:34;;;;;;;1.42;1.00;;;;;;;15.09;60.67;95394.44;5034694;28;20402;-31
2023/04/15 11:22:59;;;;;;;1.30;1.05;;;;;;;15.18;59.88;95390.81;5043224;28;20030;-31
2023/04/15 11:25:31;;;;;;;1.73;0.82;;;;;;;15.08;60.76;95386.75;5043777;28;20056;-30
2023/04/15 11:28:00;;;;;;;2.45;0.95;;;;;;;14.99;60.52;95395.06;5029034;28;20471;-31
2023/04/15 11:30:29;;;;;;;1.33;1.08;;;;;;;15.20;60.15;95382.88;5036724;28;20410;-32